Time;durP1;ratioP1;P1;durP2;ratioP2;P2;SDS_P1;SDS_P2;PMS_P1;PMS_P2;Temp;Humidity;BMP_temperature;BMP_pressure;BME280_temperature;BME280_humidity;BME280_pressure;Samples;Min_cycle;Max_cycle;Signal;HPM_P1;HPM_P2
2023/03/20 00:00:33;;;;;;;2.63;1.45;;;;;;;11.40;67.87;101389.31;5100745;28;20044;-83
2023/03/20 00:03:04;;;;;;;3.17;2.63;;;;;;;11.29;68.24;101385.13;5097326;29;20556;-82
2023/03/20 00:05:35;;;;;;;1.50;1.40;;;;;;;11.30;67.87;101391.28;5087421;29;20051;-82
2023/03/20 00:08:07;;;;;;;0.77;0.77;;;;;;;10.77;69.55;101386.09;5101518;29;20035;-82
2023/03/20 00:10:40;;;;;;;0.63;0.63;;;;;;;10.93;69.00;101387.56;5085514;29;20044;-82
2023/03/20 00:13:31;;;;;;;1.98;1.63;;;;;;;10.77;69.09;101392.22;5100293;29;20052;-82
2023/03/20 00:16:01;;;;;;;1.58;1.48;;;;;;;11.16;67.77;101399.41;5098096;29;20046;-82
2023/03/20 00:18:33;;;;;;;1.85;1.75;;;;;;;11.18;67.68;101402.88;5114229;28;20487;-83
2023/03/20 00:21:04;;;;;;;1.05;0.90;;;;;;;11.22;67.05;101404.53;5095951;28;20035;-82
2023/03/20 00:23:34;;;;;;;0.93;0.85;;;;;;;11.02;67.61;101402.28;5070879;29;20035;-82
2023/03/20 00:26:08;;;;;;;1.63;1.48;;;;;;;10.94;67.73;101401.56;5117419;28;20052;-82
2023/03/20 00:28:42;;;;;;;1.58;1.48;;;;;;;10.83;67.51;101409.63;5101872;29;20049;-82
2023/03/20 00:31:29;;;;;;;1.65;1.55;;;;;;;11.05;67.29;101411.84;5068257;29;20310;-82
2023/03/20 00:34:04;;;;;;;2.40;1.55;;;;;;;11.12;67.13;101403.84;5117584;28;20043;-83
2023/03/20 00:36:34;;;;;;;1.52;1.42;;;;;;;11.13;66.97;101409.97;5100610;28;20067;-81
2023/03/20 00:39:05;;;;;;;1.98;1.63;;;;;;;11.19;66.60;101415.13;5116900;28;20130;-82
2023/03/20 00:41:53;;;;;;;2.22;1.67;;;;;;;11.10;66.86;101417.91;5101440;29;20072;-83
2023/03/20 00:44:32;;;;;;;1.17;1.05;;;;;;;11.23;66.51;101406.28;5087998;28;20095;-83
2023/03/20 00:47:15;;;;;;;0.55;0.55;;;;;;;11.20;66.21;101400.22;5103127;28;20137;-83
2023/03/20 00:49:48;;;;;;;0.77;0.77;;;;;;;11.24;65.79;101408.00;5101050;28;20036;-82
2023/03/20 00:52:21;;;;;;;2.17;1.70;;;;;;;11.25;66.38;101412.38;5085670;29;20032;-83
2023/03/20 00:54:51;;;;;;;1.13;1.13;;;;;;;11.25;66.00;101409.75;5084008;29;20070;-83
2023/03/20 00:57:25;;;;;;;0.85;0.85;;;;;;;11.23;66.49;101401.03;5094065;29;20031;-83
2023/03/20 00:59:58;;;;;;;1.60;1.50;;;;;;;11.27;66.06;101394.81;5097413;29;20043;-82
2023/03/20 01:02:29;;;;;;;2.03;1.88;;;;;;;11.28;65.91;101396.53;5081868;29;20032;-83
2023/03/20 01:05:01;;;;;;;1.15;1.05;;;;;;;11.27;65.76;101394.81;5099435;28;20032;-82
2023/03/20 01:07:31;;;;;;;0.73;0.73;;;;;;;11.26;65.63;101393.09;5091484;29;20063;-82
2023/03/20 01:10:03;;;;;;;3.55;1.02;;;;;;;11.26;65.55;101385.22;5103629;28;20158;-83
2023/03/20 01:12:33;;;;;;;1.75;1.65;;;;;;;11.20;65.75;101374.81;5080989;29;20507;-83
2023/03/20 01:15:16;;;;;;;1.13;1.13;;;;;;;11.26;65.57;101379.06;5095073;29;20051;-83
2023/03/20 01:17:48;;;;;;;1.08;1.08;;;;;;;11.06;65.56;101389.97;5110616;28;20040;-82
2023/03/20 01:20:27;;;;;;;1.85;1.75;;;;;;;11.13;65.48;101383.69;5076249;29;20036;-82
2023/03/20 01:22:58;;;;;;;0.90;0.90;;;;;;;11.15;65.94;101381.91;5097368;29;20039;-82
2023/03/20 01:25:28;;;;;;;0.98;0.77;;;;;;;11.07;66.09;101379.44;5095340;28;20181;-82
2023/03/20 01:27:59;;;;;;;1.05;0.98;;;;;;;10.83;65.61;101362.38;5109143;28;20103;-82
2023/03/20 01:30:31;;;;;;;1.13;1.13;;;;;;;11.07;65.71;101362.81;5114817;28;20407;-83
2023/03/20 01:33:11;;;;;;;0.65;0.65;;;;;;;10.95;66.17;101356.03;5067054;29;20043;-82
2023/03/20 01:35:42;;;;;;;2.00;1.02;;;;;;;11.05;65.70;101359.34;5094402;29;20405;-82
2023/03/20 01:38:19;;;;;;;0.57;0.57;;;;;;;11.03;65.93;101356.75;5098252;29;20042;-83
2023/03/20 01:40:58;;;;;;;0.82;0.82;;;;;;;10.99;65.92;101345.44;5083342;28;20042;-82
2023/03/20 01:43:29;;;;;;;1.25;1.17;;;;;;;10.93;66.06;101348.19;5099439;29;20027;-82
2023/03/20 01:46:03;;;;;;;2.33;1.63;;;;;;;10.94;65.94;101347.31;5098555;29;20043;-83
2023/03/20 01:48:49;;;;;;;0.82;0.82;;;;;;;10.82;66.31;101351.03;5101109;29;20087;-83
2023/03/20 01:51:24;;;;;;;1.92;1.80;;;;;;;10.90;66.17;101353.47;5102574;28;20095;-83
2023/03/20 01:54:01;;;;;;;1.45;1.15;;;;;;;10.85;66.41;101350.09;5099017;29;20095;-84
2023/03/20 01:56:36;;;;;;;2.17;1.83;;;;;;;10.90;66.12;101357.88;5080284;29;20040;-83
2023/03/20 01:59:16;;;;;;;1.27;1.17;;;;;;;10.92;65.93;101364.84;5099256;29;20090;-81
2023/03/20 02:01:47;;;;;;;8.65;1.58;;;;;;;10.86;65.47;101368.44;5101605;29;20070;-83
2023/03/20 02:04:23;;;;;;;1.58;1.30;;;;;;;10.93;66.10;101371.81;5101679;29;20486;-82
2023/03/20 02:06:53;;;;;;;2.55;1.48;;;;;;;10.91;65.60;101376.22;5084714;29;20087;-82
2023/03/20 02:09:24;;;;;;;2.10;1.92;;;;;;;10.98;65.46;101375.22;5104737;28;20654;-81
2023/03/20 02:11:56;;;;;;;1.75;1.10;;;;;;;10.93;65.30;101377.06;5101865;29;20055;-84
2023/03/20 02:14:27;;;;;;;0.80;0.80;;;;;;;10.87;66.12;101382.41;5102010;28;20107;-82
2023/03/20 02:16:58;;;;;;;1.33;1.30;;;;;;;10.83;65.92;101378.97;5097693;29;20028;-81
2023/03/20 02:19:38;;;;;;;0.75;0.75;;;;;;;10.77;66.15;101371.22;5097436;28;20047;-83
2023/03/20 02:22:30;;;;;;;4.50;1.95;;;;;;;10.80;65.81;101357.16;5100571;29;20035;-82
2023/03/20 02:25:14;;;;;;;1.58;1.48;;;;;;;10.86;66.01;101359.69;5101125;28;20032;-82
2023/03/20 02:28:14;;;;;;;0.75;0.75;;;;;;;10.75;66.59;101377.38;5098058;29;20038;-82
2023/03/20 02:31:17;;;;;;;1.55;1.08;;;;;;;10.82;65.61;101379.88;5091555;28;20537;-81
2023/03/20 02:34:16;;;;;;;0.80;0.80;;;;;;;10.73;66.32;101358.16;5082868;29;20047;-82
2023/03/20 02:37:15;;;;;;;2.20;1.52;;;;;;;10.60;66.10;101361.03;5114636;28;20086;-82
2023/03/20 02:40:07;;;;;;;0.85;0.85;;;;;;;10.61;66.01;101368.00;5084932;28;20046;-82
2023/03/20 02:42:57;;;;;;;1.95;0.95;;;;;;;10.66;65.77;101370.56;5099877;29;20119;-82
2023/03/20 02:45:47;;;;;;;2.17;1.48;;;;;;;10.38;67.20;101377.09;5082328;29;20047;-81
2023/03/20 02:48:55;;;;;;;1.92;1.83;;;;;;;10.43;66.87;101378.78;5083024;29;20028;-82
2023/03/20 02:51:36;;;;;;;2.97;2.00;;;;;;;10.50;66.31;101380.44;5066609;29;20074;-82
2023/03/20 02:54:37;;;;;;;2.90;1.92;;;;;;;10.51;66.09;101380.38;5098137;29;20024;-83
2023/03/20 02:57:16;;;;;;;1.98;1.48;;;;;;;10.52;65.86;101382.13;5096772;29;20573;-81
2023/03/20 02:59:56;;;;;;;0.98;0.98;;;;;;;10.52;66.19;101378.66;5085257;28;20044;-82
2023/03/20 03:02:53;;;;;;;4.45;1.50;;;;;;;10.49;66.05;101386.56;5095812;29;20091;-83
2023/03/20 03:05:31;;;;;;;1.73;1.63;;;;;;;10.48;65.68;101395.31;5066826;29;20051;-83
2023/03/20 03:08:04;;;;;;;1.48;1.33;;;;;;;10.48;65.85;101384.81;5113459;28;20039;-83
2023/03/20 03:10:46;;;;;;;;;;;;;;;10.50;65.91;101377.81;5099448;29;20044;-83
2023/03/20 03:13:22;;;;;;;0.73;0.73;;;;;;;10.48;66.24;101374.31;5096946;29;20014;-84
2023/03/20 03:15:55;;;;;;;1.00;1.00;;;;;;;10.46;66.10;101366.50;5083260;28;20044;-83
2023/03/20 03:18:26;;;;;;;2.15;1.77;;;;;;;10.45;66.48;101356.88;5099020;28;20047;-83
2023/03/20 03:21:01;;;;;;;2.78;1.35;;;;;;;10.44;66.26;101351.66;5080609;29;20039;-83
2023/03/20 03:23:45;;;;;;;1.42;1.35;;;;;;;10.45;65.81;101358.66;5082356;29;20031;-82
2023/03/20 03:26:30;;;;;;;0.88;0.88;;;;;;;10.39;66.07;101363.09;5096301;29;20043;-82
2023/03/20 03:29:05;;;;;;;1.73;1.65;;;;;;;10.19;66.90;101378.25;5067126;29;20020;-82
2023/03/20 03:31:36;;;;;;;0.60;0.60;;;;;;;10.29;66.37;101387.69;5098925;28;20043;-83
2023/03/20 03:34:12;;;;;;;1.10;0.95;;;;;;;10.33;65.97;101383.28;5097415;29;20036;-82
2023/03/20 03:37:05;;;;;;;1.15;0.80;;;;;;;10.32;65.92;101400.78;5095016;29;20075;-83
2023/03/20 03:39:53;;;;;;;6.68;2.05;;;;;;;10.30;66.09;101405.16;5111386;28;20036;-82
2023/03/20 03:42:35;;;;;;;3.10;2.70;;;;;;;10.27;66.12;101409.59;5087837;29;20043;-83
2023/03/20 03:45:16;;;;;;;1.13;1.02;;;;;;;10.23;66.20;101406.16;5083753;29;20050;-83
2023/03/20 03:47:54;;;;;;;0.85;0.85;;;;;;;9.96;67.49;101413.50;5079290;29;20040;-82
2023/03/20 03:50:30;;;;;;;2.08;1.15;;;;;;;10.00;67.20;101409.97;5083351;29;20032;-82
2023/03/20 03:53:06;;;;;;;0.60;0.60;;;;;;;9.85;67.55;101395.31;5080009;29;20035;-81
2023/03/20 03:55:42;;;;;;;1.52;1.42;;;;;;;10.06;67.19;101391.53;5095497;28;20036;-83
2023/03/20 03:58:20;;;;;;;3.80;1.77;;;;;;;10.03;67.26;101388.97;5082377;29;20027;-82
2023/03/20 04:00:54;;;;;;;0.98;0.88;;;;;;;9.62;68.79;101382.53;5084137;29;20039;-82
2023/03/20 04:03:31;;;;;;;0.73;0.73;;;;;;;9.88;68.13;101383.91;5116532;28;20112;-81
2023/03/20 04:06:05;;;;;;;1.15;1.15;;;;;;;9.74;68.24;101387.59;5121380;28;20091;-83
2023/03/20 04:08:36;;;;;;;2.30;2.10;;;;;;;9.79;68.53;101384.91;5082828;29;20039;-82
2023/03/20 04:11:13;;;;;;;2.22;1.35;;;;;;;9.83;68.19;101380.50;5106809;29;20043;-82
2023/03/20 04:13:46;;;;;;;1.75;1.42;;;;;;;9.76;67.99;101372.72;5109599;29;20110;-82
2023/03/20 04:16:21;;;;;;;1.25;1.15;;;;;;;9.85;68.29;101378.72;5118000;28;20110;-82
2023/03/20 04:18:51;;;;;;;1.67;1.40;;;;;;;9.92;67.05;101375.13;5096599;29;20040;-83
2023/03/20 04:21:22;;;;;;;1.38;1.27;;;;;;;9.97;67.80;101383.78;5096778;28;20044;-82
2023/03/20 04:23:52;;;;;;;1.35;1.25;;;;;;;9.97;67.49;101377.69;5082715;29;20262;-83
2023/03/20 04:26:23;;;;;;;0.52;0.52;;;;;;;9.91;67.29;101368.16;5067114;29;20480;-82
2023/03/20 04:28:53;;;;;;;1.10;0.82;;;;;;;9.92;67.09;101360.25;5083319;29;20028;-82
2023/03/20 04:31:24;;;;;;;1.95;1.25;;;;;;;9.92;67.47;101364.66;5084935;29;20414;-82
2023/03/20 04:33:55;;;;;;;1.23;1.23;;;;;;;9.94;67.38;101357.63;5097062;29;20422;-83
2023/03/20 04:36:26;;;;;;;0.68;0.68;;;;;;;9.96;67.13;101360.22;5100524;28;20043;-83
2023/03/20 04:38:56;;;;;;;0.40;0.40;;;;;;;9.92;67.78;101359.41;5081268;29;20959;-83
2023/03/20 04:41:27;;;;;;;1.25;1.15;;;;;;;9.96;67.17;101365.47;5094122;29;20171;-84
2023/03/20 04:43:57;;;;;;;3.35;2.45;;;;;;;9.94;67.22;101378.59;5094064;29;20562;-82
2023/03/20 04:46:28;;;;;;;0.65;0.65;;;;;;;9.62;68.84;101382.53;5081643;29;20480;-83
2023/03/20 04:48:58;;;;;;;2.33;1.25;;;;;;;9.51;69.10;101384.41;5093197;29;20066;-82
2023/03/20 04:51:29;;;;;;;1.45;1.35;;;;;;;9.39;69.65;101374.94;5065500;29;20107;-82
2023/03/20 04:53:59;;;;;;;0.70;0.70;;;;;;;9.52;69.04;101379.13;5078729;29;20034;-82
2023/03/20 04:56:30;;;;;;;1.85;1.38;;;;;;;9.47;68.93;101374.81;5106541;28;20464;-83
2023/03/20 04:59:00;;;;;;;0.60;0.60;;;;;;;9.55;69.01;101378.22;5094998;29;20020;-83
2023/03/20 05:01:31;;;;;;;1.67;1.40;;;;;;;9.42;69.62;101377.53;5094094;29;20044;-83
2023/03/20 05:04:02;;;;;;;1.30;1.20;;;;;;;9.26;70.16;101380.28;5104020;29;20028;-83
2023/03/20 05:06:32;;;;;;;1.20;1.20;;;;;;;9.22;70.40;101372.47;5094848;29;20043;-82
2023/03/20 05:09:03;;;;;;;1.15;1.13;;;;;;;9.09;70.86;101372.63;5110620;28;20046;-80
2023/03/20 05:11:33;;;;;;;2.72;1.75;;;;;;;9.32;70.06;101373.28;5096834;29;20039;-81
2023/03/20 05:14:05;;;;;;;0.93;0.93;;;;;;;9.26;70.12;101371.59;5076667;29;20123;-81
2023/03/20 05:16:35;;;;;;;2.38;2.20;;;;;;;8.90;71.85;101373.69;5081693;29;20413;-83
2023/03/20 05:19:06;;;;;;;1.23;1.13;;;;;;;9.08;70.67;101367.41;5083289;29;20127;-80
2023/03/20 05:21:36;;;;;;;0.85;0.85;;;;;;;9.20;70.38;101366.41;5074927;29;20044;-80
2023/03/20 05:24:07;;;;;;;2.08;1.70;;;;;;;9.11;70.91;101360.41;5067433;29;20260;-80
2023/03/20 05:26:37;;;;;;;1.40;1.30;;;;;;;8.81;71.57;101366.81;5094416;28;20067;-80
2023/03/20 05:29:08;;;;;;;1.15;1.15;;;;;;;8.62;72.40;101364.34;5107029;28;20031;-80
2023/03/20 05:31:38;;;;;;;3.15;1.70;;;;;;;8.59;72.87;101361.78;5078316;29;20582;-80
2023/03/20 05:34:09;;;;;;;1.00;1.00;;;;;;;8.31;74.42;101367.19;5109747;28;20083;-80
2023/03/20 05:36:39;;;;;;;1.20;1.15;;;;;;;8.45;73.77;101360.97;5094783;28;20043;-80
2023/03/20 05:39:10;;;;;;;1.23;1.13;;;;;;;8.50;73.91;101367.09;5110995;28;20072;-85
2023/03/20 05:41:41;;;;;;;2.22;1.52;;;;;;;8.44;73.45;101365.34;5074253;29;20098;-85
2023/03/20 05:44:11;;;;;;;10.57;2.35;;;;;;;8.72;72.35;101359.88;5078732;29;20044;-85
2023/03/20 05:46:42;;;;;;;1.45;1.35;;;;;;;8.54;73.21;101362.69;5107238;28;20047;-85
2023/03/20 05:49:12;;;;;;;3.05;1.77;;;;;;;8.62;72.85;101366.13;5066302;29;20031;-86
2023/03/20 05:51:43;;;;;;;1.75;1.65;;;;;;;8.79;71.85;101374.69;5084509;28;20062;-85
2023/03/20 05:54:13;;;;;;;1.30;1.17;;;;;;;8.70;71.66;101374.75;5089977;29;20094;-85
2023/03/20 05:56:43;;;;;;;2.17;1.88;;;;;;;8.72;72.27;101372.13;5106293;28;20055;-86
2023/03/20 05:59:14;;;;;;;0.60;0.60;;;;;;;8.47;73.08;101373.19;5064521;29;20032;-86
2023/03/20 06:01:47;;;;;;;1.42;1.33;;;;;;;8.34;73.53;101371.50;5101708;28;20166;-84
2023/03/20 06:04:18;;;;;;;0.75;0.75;;;;;;;8.47;73.45;101370.56;5102931;28;20106;-87
2023/03/20 06:06:48;;;;;;;1.27;1.23;;;;;;;8.39;73.39;101361.88;5057702;29;20166;-85
2023/03/20 06:09:19;;;;;;;0.68;0.68;;;;;;;8.55;72.60;101367.91;5078139;28;20375;-85
2023/03/20 06:11:49;;;;;;;0.68;0.68;;;;;;;8.19;73.86;101373.38;5091365;29;20517;-85
2023/03/20 06:14:20;;;;;;;0.60;0.60;;;;;;;8.28;73.70;101371.56;5070083;29;20035;-84
2023/03/20 06:16:51;;;;;;;0.88;0.77;;;;;;;8.34;73.25;101368.91;5088531;29;20383;-85
2023/03/20 06:19:21;;;;;;;2.30;1.77;;;;;;;8.36;72.53;101369.75;5078238;28;20473;-85
2023/03/20 06:21:52;;;;;;;0.70;0.70;;;;;;;8.46;72.38;101367.94;5074803;29;20027;-84
2023/03/20 06:24:22;;;;;;;0.80;0.77;;;;;;;8.40;72.61;101370.59;5064338;28;20187;-85
2023/03/20 06:26:53;;;;;;;1.55;1.45;;;;;;;8.59;71.32;101372.25;5077855;29;20450;-85
2023/03/20 06:29:23;;;;;;;1.00;1.00;;;;;;;8.74;71.32;101371.22;5090555;28;20394;-86
2023/03/20 06:31:54;;;;;;;0.40;0.40;;;;;;;8.81;70.81;101375.50;5076903;29;20142;-85
2023/03/20 06:34:25;;;;;;;0.88;0.88;;;;;;;8.85;70.92;101384.19;5072838;28;20398;-84
2023/03/20 06:36:55;;;;;;;7.68;1.58;;;;;;;8.88;70.54;101372.84;5110229;28;20026;-85
2023/03/20 06:39:27;;;;;;;2.85;1.02;;;;;;;8.92;70.96;101367.59;5109584;28;20027;-85
2023/03/20 06:41:58;;;;;;;0.75;0.75;;;;;;;8.92;70.93;101361.47;5094081;29;20023;-86
2023/03/20 06:44:28;;;;;;;0.88;0.85;;;;;;;9.00;70.41;101372.72;5081244;28;20537;-84
2023/03/20 06:46:58;;;;;;;1.45;1.35;;;;;;;9.03;70.29;101372.69;5109518;28;20115;-84
2023/03/20 06:49:29;;;;;;;2.13;0.82;;;;;;;9.10;69.85;101389.19;5112710;28;20081;-84
2023/03/20 06:51:59;;;;;;;1.33;1.20;;;;;;;9.12;70.00;101385.69;5107854;28;20127;-84
2023/03/20 06:54:30;;;;;;;0.50;0.50;;;;;;;9.10;69.63;101397.94;5065092;29;20414;-84
2023/03/20 06:57:00;;;;;;;0.50;0.50;;;;;;;9.16;69.62;101407.47;5062293;29;20031;-85
2023/03/20 06:59:31;;;;;;;1.60;1.50;;;;;;;9.22;69.64;101406.53;5077616;28;20032;-84
2023/03/20 07:02:02;;;;;;;0.65;0.65;;;;;;;9.17;69.37;101410.94;5075916;29;20032;-84
2023/03/20 07:04:33;;;;;;;1.00;1.00;;;;;;;9.09;69.52;101425.00;5065144;28;20028;-84
2023/03/20 07:07:03;;;;;;;0.70;0.70;;;;;;;9.16;69.39;101419.69;5069733;29;21870;-84
2023/03/20 07:09:34;;;;;;;1.23;1.15;;;;;;;8.85;69.68;101426.06;5063723;28;20032;-83
2023/03/20 07:12:04;;;;;;;0.50;0.50;;;;;;;9.06;69.83;101435.47;5109694;28;20487;-84
2023/03/20 07:14:35;;;;;;;1.10;1.10;;;;;;;9.19;69.70;101432.75;5082434;28;20035;-86
2023/03/20 07:17:05;;;;;;;1.05;0.65;;;;;;;9.32;68.67;101434.34;5065636;29;20019;-85
2023/03/20 07:19:36;;;;;;;1.30;1.20;;;;;;;8.82;70.70;101440.06;5078518;29;20075;-83
2023/03/20 07:22:17;;;;;;;1.15;1.05;;;;;;;8.73;70.75;101441.88;5081187;29;20365;-86
2023/03/20 07:24:48;;;;;;;0.50;0.50;;;;;;;8.74;70.64;101448.84;5116972;28;20156;-86
2023/03/20 07:27:18;;;;;;;0.75;0.75;;;;;;;8.69;70.86;101437.53;5081544;29;20059;-85
2023/03/20 07:29:49;;;;;;;0.47;0.47;;;;;;;8.60;70.66;101441.09;5111802;28;20054;-85
2023/03/20 07:32:22;;;;;;;0.88;0.88;;;;;;;8.81;70.11;101437.47;5090518;29;20032;-86
2023/03/20 07:34:53;;;;;;;;;;;;;;;8.71;70.21;101444.53;5077748;29;20032;-85
2023/03/20 07:37:23;;;;;;;0.40;0.40;;;;;;;8.52;70.78;101443.75;5081906;29;19986;-86
2023/03/20 07:39:54;;;;;;;1.27;1.27;;;;;;;8.60;70.51;101446.34;5067795;29;20040;-85
2023/03/20 07:42:27;;;;;;;1.55;1.45;;;;;;;8.61;70.73;101448.09;5081862;29;20045;-85
2023/03/20 07:44:57;;;;;;;3.63;2.63;;;;;;;8.61;70.81;101448.09;5082816;28;20040;-85
2023/03/20 07:47:28;;;;;;;0.50;0.50;;;;;;;8.50;70.86;101454.25;5082983;29;20028;-85
2023/03/20 07:49:58;;;;;;;1.48;0.82;;;;;;;8.59;70.74;101450.72;5091390;28;20431;-85
2023/03/20 07:52:29;;;;;;;0.77;0.77;;;;;;;8.57;71.02;101451.56;5075718;29;20491;-85
2023/03/20 07:54:59;;;;;;;0.82;0.82;;;;;;;8.49;70.59;101452.50;5079045;29;20028;-85
2023/03/20 07:57:30;;;;;;;0.68;0.68;;;;;;;8.33;71.19;101456.94;5093161;29;20032;-85
2023/03/20 08:00:00;;;;;;;1.05;0.95;;;;;;;8.38;70.72;101454.31;5083347;29;20040;-84
2023/03/20 08:02:31;;;;;;;0.50;0.50;;;;;;;8.38;70.66;101451.69;5070367;29;20055;-84
2023/03/20 08:05:01;;;;;;;1.60;1.50;;;;;;;8.45;70.69;101452.50;5093260;28;20187;-84
2023/03/20 08:07:32;;;;;;;0.50;0.50;;;;;;;8.47;70.57;101454.25;5082843;29;20036;-84
2023/03/20 08:10:05;;;;;;;0.87;0.87;;;;;;;8.31;70.57;101455.19;5081845;28;20040;-85
2023/03/20 08:12:35;;;;;;;0.77;0.75;;;;;;;8.46;70.94;101455.13;5086008;29;20975;-85
2023/03/20 08:15:06;;;;;;;0.68;0.68;;;;;;;8.45;70.74;101456.00;5070878;28;20395;-85
2023/03/20 08:17:37;;;;;;;0.82;0.82;;;;;;;8.67;69.82;101455.88;5102067;29;20042;-86
2023/03/20 08:20:08;;;;;;;3.00;1.70;;;;;;;8.62;69.74;101465.50;5086600;28;20040;-85
2023/03/20 08:22:39;;;;;;;0.57;0.57;;;;;;;8.70;70.34;101465.44;5079581;29;20036;-86
2023/03/20 08:25:10;;;;;;;1.30;1.17;;;;;;;8.71;70.41;101475.03;5092815;29;20032;-85
2023/03/20 08:27:41;;;;;;;0.65;0.65;;;;;;;8.65;70.99;101473.31;5087153;29;20034;-85
2023/03/20 08:30:12;;;;;;;0.50;0.50;;;;;;;8.61;69.77;101464.63;5089577;28;20062;-85
2023/03/20 08:32:43;;;;;;;0.55;0.55;;;;;;;8.55;69.37;101474.28;5077039;29;20154;-85
2023/03/20 08:35:13;;;;;;;0.70;0.70;;;;;;;8.65;69.74;101471.59;5059945;29;20050;-85
2023/03/20 08:37:44;;;;;;;1.08;0.60;;;;;;;8.64;68.55;101462.00;5092408;29;20114;-86
2023/03/20 08:40:15;;;;;;;0.50;0.50;;;;;;;8.70;69.33;101468.94;5076367;29;20048;-86
2023/03/20 08:42:46;;;;;;;0.65;0.65;;;;;;;8.63;68.80;101462.03;5061028;29;20036;-85
2023/03/20 08:45:16;;;;;;;2.17;0.93;;;;;;;8.71;68.38;101470.69;5104826;28;20039;-85
2023/03/20 08:47:47;;;;;;;2.50;1.38;;;;;;;8.77;68.80;101469.75;5080142;29;20464;-85
2023/03/20 08:50:18;;;;;;;1.70;1.60;;;;;;;8.62;68.91;101466.38;5104708;28;20036;-85
2023/03/20 08:52:48;;;;;;;1.25;1.20;;;;;;;8.67;68.21;101466.34;5073188;29;20039;-85
2023/03/20 08:55:19;;;;;;;1.25;1.15;;;;;;;8.48;68.22;101461.22;5090903;29;20119;-85
2023/03/20 08:57:49;;;;;;;0.22;0.22;;;;;;;8.67;68.51;101471.56;5081592;29;20046;-85
2023/03/20 09:00:21;;;;;;;0.73;0.70;;;;;;;8.56;68.38;101473.38;5093982;28;20040;-84
2023/03/20 09:02:51;;;;;;;0.60;0.60;;;;;;;8.74;68.22;101480.25;5079928;29;20038;-85
2023/03/20 09:05:22;;;;;;;0.70;0.70;;;;;;;8.72;68.16;101480.25;5060639;29;20044;-86
2023/03/20 09:07:52;;;;;;;0.30;0.30;;;;;;;8.76;68.65;101476.75;5071037;29;20061;-85
2023/03/20 09:10:23;;;;;;;4.40;1.10;;;;;;;8.70;68.18;101474.19;5094183;29;20558;-85
2023/03/20 09:12:53;;;;;;;0.93;0.85;;;;;;;8.73;67.94;101471.53;5084697;29;20067;-85
2023/03/20 09:15:24;;;;;;;0.45;0.45;;;;;;;8.61;66.77;101474.25;5076895;29;20055;-85
2023/03/20 09:17:55;;;;;;;0.73;0.73;;;;;;;8.61;66.88;101484.69;5076577;29;20518;-85
2023/03/20 09:20:25;;;;;;;0.50;0.50;;;;;;;8.77;66.95;101480.22;5094809;28;20126;-85
2023/03/20 09:22:56;;;;;;;1.40;1.02;;;;;;;8.87;66.28;101478.41;5108865;28;20103;-84
2023/03/20 09:25:26;;;;;;;0.50;0.50;;;;;;;8.90;65.43;101481.00;5066725;29;20052;-85
2023/03/20 09:27:57;;;;;;;0.52;0.50;;;;;;;8.82;64.85;101484.53;5094793;29;20446;-85
2023/03/20 09:30:27;;;;;;;0.30;0.30;;;;;;;8.79;64.31;101478.47;5102860;28;20079;-85
2023/03/20 09:32:58;;;;;;;0.45;0.45;;;;;;;8.88;63.96;101477.53;5097405;29;20080;-85
2023/03/20 09:35:28;;;;;;;0.40;0.40;;;;;;;8.84;64.76;101475.81;5096702;28;20128;-85
2023/03/20 09:37:59;;;;;;;0.50;0.50;;;;;;;8.81;64.41;101477.56;5076603;29;20066;-85
2023/03/20 09:40:45;;;;;;;0.60;0.60;;;;;;;9.01;63.86;101476.53;5098506;28;20044;-85
2023/03/20 09:43:34;;;;;;;0.40;0.38;;;;;;;9.04;63.89;101473.03;5074144;29;20036;-86
2023/03/20 09:46:27;;;;;;;2.20;2.08;;;;;;;8.76;63.41;101484.59;5090476;28;20042;-85
2023/03/20 09:49:07;;;;;;;0.30;0.30;;;;;;;8.80;63.06;101480.19;5098262;29;20111;-85
2023/03/20 09:51:50;;;;;;;0.88;0.88;;;;;;;8.82;62.85;101483.69;5077034;28;20043;-85
2023/03/20 09:54:28;;;;;;;0.30;0.30;;;;;;;8.64;62.23;101469.84;5090925;28;20518;-85
2023/03/20 09:57:00;;;;;;;0.40;0.40;;;;;;;8.77;62.14;101470.63;5112481;28;20039;-84
2023/03/20 09:59:35;;;;;;;1.35;0.73;;;;;;;8.87;62.13;101481.03;5079061;28;20035;-85
2023/03/20 10:02:15;;;;;;;1.50;1.40;;;;;;;8.94;62.57;101485.34;5094733;29;20039;-85
2023/03/20 10:04:47;;;;;;;0.95;0.95;;;;;;;8.87;62.66;101483.66;5081829;28;20430;-85
2023/03/20 10:07:18;;;;;;;0.20;0.20;;;;;;;8.94;63.47;101478.34;5082123;29;20060;-85
2023/03/20 10:09:48;;;;;;;0.43;0.43;;;;;;;9.00;62.93;101477.44;5074914;29;20074;-85
2023/03/20 10:12:55;;;;;;;0.40;0.40;;;;;;;8.99;63.59;101480.91;5086454;29;20305;-84
2023/03/20 10:15:45;;;;;;;0.38;0.38;;;;;;;8.95;63.02;101479.22;5080703;28;20939;-85
2023/03/20 10:18:24;;;;;;;0.55;0.55;;;;;;;8.86;63.22;101474.06;5067916;29;20438;-85
2023/03/20 10:21:12;;;;;;;0.90;0.50;;;;;;;8.92;62.91;101468.78;5099201;28;20062;-85
2023/03/20 10:24:05;;;;;;;0.70;0.70;;;;;;;9.04;64.04;101462.56;5083243;29;20466;-85
2023/03/20 10:26:37;;;;;;;3.88;1.58;;;;;;;9.06;62.16;101472.13;5073784;29;20047;-84
2023/03/20 10:29:26;;;;;;;0.68;0.68;;;;;;;8.84;62.46;101460.09;5106815;29;20027;-85
2023/03/20 10:32:06;;;;;;;0.63;0.63;;;;;;;8.64;62.00;101464.63;5083024;29;20067;-84
2023/03/20 10:34:48;;;;;;;0.65;0.65;;;;;;;8.73;62.83;101474.13;5097082;28;20035;-85
2023/03/20 10:37:36;;;;;;;0.57;0.57;;;;;;;8.70;63.08;101476.78;5065915;29;20052;-84
2023/03/20 10:40:22;;;;;;;0.40;0.40;;;;;;;8.80;63.05;101473.22;5072588;29;20171;-85
2023/03/20 10:42:56;;;;;;;0.40;0.40;;;;;;;8.87;63.77;101474.03;5059589;29;20155;-85
2023/03/20 10:45:33;;;;;;;0.73;0.73;;;;;;;8.77;63.88;101474.97;5094513;28;20050;-85
2023/03/20 10:48:12;;;;;;;0.75;0.75;;;;;;;8.90;64.62;101466.19;5068590;29;20064;-85
2023/03/20 10:50:50;;;;;;;0.50;0.50;;;;;;;8.86;64.72;101474.91;5066360;29;20771;-84
2023/03/20 10:53:41;;;;;;;0.43;0.43;;;;;;;8.88;63.57;101477.53;5093590;29;20081;-85
2023/03/20 10:56:18;;;;;;;0.55;0.55;;;;;;;8.89;63.15;101463.53;5063329;29;20404;-85
2023/03/20 10:58:58;;;;;;;0.22;0.22;;;;;;;8.65;63.69;101465.47;5103593;28;20042;-85
2023/03/20 11:01:29;;;;;;;0.63;0.60;;;;;;;8.82;63.78;101466.22;5101243;28;20048;-85
2023/03/20 11:03:59;;;;;;;0.73;0.73;;;;;;;8.77;64.28;101465.41;5067545;29;20027;-85
2023/03/20 11:06:36;;;;;;;3.10;0.95;;;;;;;8.86;65.56;101474.06;5065002;29;20456;-85
2023/03/20 11:09:22;;;;;;;0.55;0.50;;;;;;;8.82;64.67;101466.22;5079029;29;20495;-85
2023/03/20 11:11:56;;;;;;;0.20;0.20;;;;;;;8.43;67.55;101460.38;5074920;29;20040;-85
2023/03/20 11:14:33;;;;;;;0.40;0.40;;;;;;;8.57;67.98;101462.03;5095414;28;20101;-84
2023/03/20 11:17:05;;;;;;;0.75;0.75;;;;;;;8.69;68.71;101459.34;5098840;29;20043;-85
2023/03/20 11:19:38;;;;;;;0.30;0.30;;;;;;;8.78;69.76;101458.41;5080694;28;20028;-85
2023/03/20 11:22:30;;;;;;;2.15;1.08;;;;;;;8.78;68.60;101451.44;5067036;29;20106;-85
2023/03/20 11:25:01;;;;;;;3.15;0.60;;;;;;;8.62;69.23;101448.06;5079671;29;20074;-84
2023/03/20 11:27:33;;;;;;;0.60;0.60;;;;;;;8.47;70.24;101451.63;5099078;29;20036;-84
2023/03/20 11:30:16;;;;;;;0.75;0.75;;;;;;;8.46;68.37;101449.91;5106826;29;20538;-85
2023/03/20 11:32:49;;;;;;;0.47;0.47;;;;;;;8.35;68.87;101455.16;5099899;29;20040;-85
2023/03/20 11:35:26;;;;;;;4.95;1.38;;;;;;;8.46;70.05;101449.00;5094762;28;20051;-84
2023/03/20 11:38:14;;;;;;;0.77;0.77;;;;;;;8.40;70.26;101444.69;5107567;29;20020;-84
2023/03/20 11:40:47;;;;;;;0.20;0.20;;;;;;;8.46;70.48;101442.06;5110259;29;20051;-84
2023/03/20 11:43:20;;;;;;;0.52;0.52;;;;;;;8.38;71.23;101451.69;5099621;29;20035;-84
2023/03/20 11:45:56;;;;;;;0.30;0.30;;;;;;;8.45;71.02;101445.53;5122320;28;20043;-86
2023/03/20 11:48:44;;;;;;;1.20;1.15;;;;;;;8.50;70.68;101443.78;5108297;29;20032;-85
2023/03/20 11:51:20;;;;;;;1.38;0.95;;;;;;;8.73;69.82;101442.75;5109858;28;20107;-84
2023/03/20 11:54:06;;;;;;;0.30;0.30;;;;;;;8.78;69.39;101432.25;5123430;28;20046;-84
2023/03/20 11:56:36;;;;;;;0.40;0.40;;;;;;;8.63;68.71;101441.09;5094471;28;20062;-85
2023/03/20 11:59:17;;;;;;;0.20;0.20;;;;;;;8.55;69.40;101433.28;5080378;29;20031;-84
2023/03/20 12:01:53;;;;;;;0.40;0.40;;;;;;;8.57;68.86;101431.53;5105793;29;20035;-85
2023/03/20 12:04:40;;;;;;;1.65;1.55;;;;;;;8.84;68.65;101428.72;5113183;28;20056;-86
2023/03/20 12:07:35;;;;;;;0.30;0.30;;;;;;;8.89;69.12;101421.69;5104034;29;20083;-84